sensor_id;sensor_type;location;lat;lon;timestamp;pressure;altitude;pressure_sealevel;temperature;humidity
10946;BME280;5525;42.648;23.368;2022-12-18T06:31:37;95799.88;;;3.75;100.00
10946;BME280;5525;42.648;23.368;2022-12-18T06:34:06;95831.31;;;3.95;100.00
10946;BME280;5525;42.648;23.368;2022-12-18T06:36:33;95815.66;;;3.82;100.00
10946;BME280;5525;42.648;23.368;2022-12-18T06:39:03;95845.25;;;4.02;100.00
10946;BME280;5525;42.648;23.368;2022-12-18T06:41:40;95871.22;;;4.06;100.00
10946;BME280;5525;42.648;23.368;2022-12-18T06:44:16;95859.41;;;4.02;100.00
10946;BME280;5525;42.648;23.368;2022-12-18T06:46:56;95854.09;;;4.02;100.00
10946;BME280;5525;42.648;23.368;2022-12-18T06:49:27;95803.19;;;3.61;100.00
10946;BME280;5525;42.648;23.368;2022-12-18T06:51:56;95806.69;;;3.61;100.00
10946;BME280;5525;42.648;23.368;2022-12-18T06:54:34;95805.31;;;3.59;100.00
10946;BME280;5525;42.648;23.368;2022-12-18T06:57:02;95828.50;;;3.80;100.00
10946;BME280;5525;42.648;23.368;2022-12-18T06:59:37;95812.81;;;3.62;100.00
10946;BME280;5525;42.648;23.368;2022-12-18T07:04:58;95836.22;;;3.76;100.00
10946;BME280;5525;42.648;23.368;2022-12-18T07:07:28;95859.81;;;3.89;100.00
10946;BME280;5525;42.648;23.368;2022-12-18T07:09:58;95806.94;;;3.60;100.00
10946;BME280;5525;42.648;23.368;2022-12-18T07:12:28;95845.69;;;3.94;100.00
10946;BME280;5525;42.648;23.368;2022-12-18T07:14:55;95851.53;;;3.86;100.00
10946;BME280;5525;42.648;23.368;2022-12-18T07:17:25;95862.53;;;3.94;100.00
10946;BME280;5525;42.648;23.368;2022-12-18T07:22:55;95850.16;;;3.83;100.00
10946;BME280;5525;42.648;23.368;2022-12-18T07:25:25;95864.47;;;3.99;100.00
10946;BME280;5525;42.648;23.368;2022-12-18T07:27:55;95898.09;;;4.21;100.00
10946;BME280;5525;42.648;23.368;2022-12-18T07:30:29;95812.41;;;3.75;100.00
10946;BME280;5525;42.648;23.368;2022-12-18T07:33:11;95878.31;;;4.22;100.00
10946;BME280;5525;42.648;23.368;2022-12-18T07:35:46;95885.50;;;4.22;100.00
10946;BME280;5525;42.648;23.368;2022-12-18T07:38:46;95851.47;;;4.07;100.00
10946;BME280;5525;42.648;23.368;2022-12-18T07:41:14;95831.69;;;3.82;100.00
10946;BME280;5525;42.648;23.368;2022-12-18T07:43:46;95925.97;;;4.30;100.00
10946;BME280;5525;42.648;23.368;2022-12-18T07:46:18;95890.34;;;4.25;100.00
10946;BME280;5525;42.648;23.368;2022-12-18T07:48:46;95884.88;;;4.10;100.00
10946;BME280;5525;42.648;23.368;2022-12-18T07:51:23;95851.78;;;3.84;100.00
10946;BME280;5525;42.648;23.368;2022-12-18T07:53:59;95859.53;;;3.86;100.00
10946;BME280;5525;42.648;23.368;2022-12-18T07:56:28;95843.19;;;3.82;100.00
10946;BME280;5525;42.648;23.368;2022-12-18T07:59:05;95865.66;;;3.86;100.00
10946;BME280;5525;42.648;23.368;2022-12-18T08:01:46;95907.59;;;4.07;100.00
10946;BME280;5525;42.648;23.368;2022-12-18T08:04:14;95933.75;;;4.37;100.00
10946;BME280;5525;42.648;23.368;2022-12-18T08:06:54;95924.97;;;4.10;100.00
10946;BME280;5525;42.648;23.368;2022-12-18T08:09:28;95914.78;;;4.07;100.00
10946;BME280;5525;42.648;23.368;2022-12-18T08:11:57;95959.22;;;4.13;100.00
10946;BME280;5525;42.648;23.368;2022-12-18T08:14:28;95965.06;;;4.10;100.00
10946;BME280;5525;42.648;23.368;2022-12-18T08:17:00;95942.16;;;3.92;100.00
10946;BME280;5525;42.648;23.368;2022-12-18T08:19:29;95921.69;;;3.76;100.00
10946;BME280;5525;42.648;23.368;2022-12-18T08:22:09;95954.81;;;3.75;100.00
10946;BME280;5525;42.648;23.368;2022-12-18T08:24:42;95979.06;;;3.95;100.00
10946;BME280;5525;42.648;23.368;2022-12-18T08:27:13;95914.19;;;3.52;100.00
10946;BME280;5525;42.648;23.368;2022-12-18T08:29:41;95953.09;;;3.91;100.00
10946;BME280;5525;42.648;23.368;2022-12-18T08:32:14;95953.81;;;3.81;100.00
10946;BME280;5525;42.648;23.368;2022-12-18T08:34:52;95937.13;;;3.74;100.00
10946;BME280;5525;42.648;23.368;2022-12-18T08:37:27;95990.94;;;4.04;100.00
10946;BME280;5525;42.648;23.368;2022-12-18T08:40:02;95915.03;;;3.57;100.00
10946;BME280;5525;42.648;23.368;2022-12-18T08:42:36;95940.00;;;3.68;100.00
10946;BME280;5525;42.648;23.368;2022-12-18T08:45:21;95992.31;;;3.85;100.00
10946;BME280;5525;42.648;23.368;2022-12-18T08:47:54;95956.66;;;3.75;100.00
10946;BME280;5525;42.648;23.368;2022-12-18T08:50:26;95999.22;;;4.08;100.00
10946;BME280;5525;42.648;23.368;2022-12-18T08:53:03;95965.16;;;3.93;100.00
10946;BME280;5525;42.648;23.368;2022-12-18T08:55:40;95988.69;;;3.96;100.00
10946;BME280;5525;42.648;23.368;2022-12-18T08:58:15;95942.13;;;3.66;100.00
10946;BME280;5525;42.648;23.368;2022-12-18T09:00:45;95943.91;;;3.82;100.00
10946;BME280;5525;42.648;23.368;2022-12-18T09:03:12;95953.53;;;4.04;100.00
10946;BME280;5525;42.648;23.368;2022-12-18T09:05:39;95942.16;;;3.92;100.00
10946;BME280;5525;42.648;23.368;2022-12-18T09:08:07;95937.63;;;3.93;100.00
10946;BME280;5525;42.648;23.368;2022-12-18T09:10:41;95969.78;;;4.29;100.00
10946;BME280;5525;42.648;23.368;2022-12-18T09:13:09;95989.00;;;4.26;100.00
10946;BME280;5525;42.648;23.368;2022-12-18T09:15:40;95908.31;;;3.76;100.00
10946;BME280;5525;42.648;23.368;2022-12-18T09:18:08;95920.06;;;3.75;100.00
10946;BME280;5525;42.648;23.368;2022-12-18T09:20:35;95989.25;;;4.25;100.00
10946;BME280;5525;42.648;23.368;2022-12-18T09:23:03;95922.94;;;3.95;100.00
10946;BME280;5525;42.648;23.368;2022-12-18T09:25:31;95981.81;;;4.27;100.00
10946;BME280;5525;42.648;23.368;2022-12-18T09:28:04;95983.13;;;4.24;100.00
10946;BME280;5525;42.648;23.368;2022-12-18T09:30:32;95990.09;;;4.25;100.00
10946;BME280;5525;42.648;23.368;2022-12-18T09:33:00;95944.53;;;4.15;100.00
10946;BME280;5525;42.648;23.368;2022-12-18T09:35:28;95930.63;;;4.13;100.00
10946;BME280;5525;42.648;23.368;2022-12-18T09:37:55;95936.16;;;4.33;100.00
10946;BME280;5525;42.648;23.368;2022-12-18T09:40:25;95980.34;;;4.67;100.00
10946;BME280;5525;42.648;23.368;2022-12-18T09:42:57;95995.13;;;4.48;100.00
10946;BME280;5525;42.648;23.368;2022-12-18T09:45:31;95991.56;;;4.43;100.00
10946;BME280;5525;42.648;23.368;2022-12-18T09:48:11;95982.47;;;4.39;100.00
10946;BME280;5525;42.648;23.368;2022-12-18T09:50:40;95945.53;;;4.09;100.00
10946;BME280;5525;42.648;23.368;2022-12-18T09:53:13;95923.31;;;4.04;100.00
10946;BME280;5525;42.648;23.368;2022-12-18T09:55:45;95929.31;;;4.16;100.00
10946;BME280;5525;42.648;23.368;2022-12-18T09:58:16;95972.53;;;4.66;100.00
10946;BME280;5525;42.648;23.368;2022-12-18T10:00:46;95908.91;;;4.36;100.00
10946;BME280;5525;42.648;23.368;2022-12-18T10:03:15;95986.22;;;5.01;100.00
10946;BME280;5525;42.648;23.368;2022-12-18T10:05:49;95985.19;;;5.12;100.00
10946;BME280;5525;42.648;23.368;2022-12-18T10:08:24;95952.81;;;4.77;100.00
10946;BME280;5525;42.648;23.368;2022-12-18T10:10:59;95968.94;;;4.82;100.00
10946;BME280;5525;42.648;23.368;2022-12-18T10:13:31;95984.25;;;4.60;100.00
10946;BME280;5525;42.648;23.368;2022-12-18T10:16:09;95985.53;;;4.84;100.00
10946;BME280;5525;42.648;23.368;2022-12-18T10:19:04;95961.50;;;4.57;100.00
10946;BME280;5525;42.648;23.368;2022-12-18T10:21:41;95984.53;;;4.90;100.00
10946;BME280;5525;42.648;23.368;2022-12-18T10:24:16;95959.75;;;4.41;100.00
10946;BME280;5525;42.648;23.368;2022-12-18T10:26:47;95992.06;;;4.66;100.00
10946;BME280;5525;42.648;23.368;2022-12-18T10:29:16;95956.97;;;4.58;100.00
10946;BME280;5525;42.648;23.368;2022-12-18T10:31:44;95956.34;;;4.46;100.00
10946;BME280;5525;42.648;23.368;2022-12-18T10:34:16;95991.50;;;4.59;100.00
10946;BME280;5525;42.648;23.368;2022-12-18T10:36:43;95958.44;;;4.44;100.00
10946;BME280;5525;42.648;23.368;2022-12-18T10:39:16;95981.91;;;4.37;100.00
10946;BME280;5525;42.648;23.368;2022-12-18T10:41:45;95939.19;;;4.15;100.00
10946;BME280;5525;42.648;23.368;2022-12-18T10:44:17;95968.03;;;4.40;100.00
10946;BME280;5525;42.648;23.368;2022-12-18T10:46:49;95954.38;;;4.36;100.00
10946;BME280;5525;42.648;23.368;2022-12-18T10:49:23;95916.88;;;4.31;100.00
10946;BME280;5525;42.648;23.368;2022-12-18T10:52:07;95970.88;;;4.60;100.00
10946;BME280;5525;42.648;23.368;2022-12-18T10:57:27;95923.13;;;4.15;100.00
10946;BME280;5525;42.648;23.368;2022-12-18T11:00:00;95981.63;;;4.65;100.00
10946;BME280;5525;42.648;23.368;2022-12-18T11:02:44;95898.25;;;4.41;100.00
10946;BME280;5525;42.648;23.368;2022-12-18T11:05:27;95928.31;;;4.53;100.00
10946;BME280;5525;42.648;23.368;2022-12-18T11:08:00;95942.63;;;4.74;100.00
10946;BME280;5525;42.648;23.368;2022-12-18T11:10:32;95917.94;;;4.62;100.00
10946;BME280;5525;42.648;23.368;2022-12-18T11:13:11;95981.84;;;4.90;100.00
10946;BME280;5525;42.648;23.368;2022-12-18T11:15:40;95909.84;;;4.52;100.00
10946;BME280;5525;42.648;23.368;2022-12-18T11:18:18;95978.72;;;5.03;100.00
10946;BME280;5525;42.648;23.368;2022-12-18T11:20:52;95958.13;;;4.67;100.00
10946;BME280;5525;42.648;23.368;2022-12-18T11:23:21;95985.81;;;4.82;100.00
10946;BME280;5525;42.648;23.368;2022-12-18T11:25:52;95953.16;;;4.49;100.00
10946;BME280;5525;42.648;23.368;2022-12-18T11:28:33;95909.53;;;4.17;100.00
10946;BME280;5525;42.648;23.368;2022-12-18T11:31:21;95925.16;;;4.30;100.00
10946;BME280;5525;42.648;23.368;2022-12-18T11:33:58;95984.91;;;4.72;100.00
10946;BME280;5525;42.648;23.368;2022-12-18T11:36:33;95993.53;;;4.79;100.00
10946;BME280;5525;42.648;23.368;2022-12-18T11:39:12;95943.88;;;4.61;100.00
10946;BME280;5525;42.648;23.368;2022-12-18T11:41:50;95943.41;;;4.69;100.00
10946;BME280;5525;42.648;23.368;2022-12-18T11:44:42;95982.09;;;4.88;100.00
10946;BME280;5525;42.648;23.368;2022-12-18T11:47:20;95977.84;;;4.92;100.00
10946;BME280;5525;42.648;23.368;2022-12-18T11:49:59;95929.50;;;4.67;100.00
10946;BME280;5525;42.648;23.368;2022-12-18T11:52:34;95923.69;;;4.44;100.00
10946;BME280;5525;42.648;23.368;2022-12-18T11:55:13;95976.13;;;4.81;100.00
10946;BME280;5525;42.648;23.368;2022-12-18T11:57:54;95939.84;;;4.59;100.00
10946;BME280;5525;42.648;23.368;2022-12-18T12:00:39;95985.28;;;4.85;100.00
10946;BME280;5525;42.648;23.368;2022-12-18T12:03:22;95986.13;;;4.91;100.00
10946;BME280;5525;42.648;23.368;2022-12-18T12:06:03;95919.63;;;4.41;100.00
10946;BME280;5525;42.648;23.368;2022-12-18T12:08:51;95976.28;;;4.65;100.00
10946;BME280;5525;42.648;23.368;2022-12-18T12:11:31;95984.16;;;4.81;100.00
10946;BME280;5525;42.648;23.368;2022-12-18T12:14:17;95987.97;;;4.85;100.00
10946;BME280;5525;42.648;23.368;2022-12-18T12:16:54;95932.91;;;4.58;100.00
10946;BME280;5525;42.648;23.368;2022-12-18T12:19:44;95931.53;;;4.55;100.00
10946;BME280;5525;42.648;23.368;2022-12-18T12:22:25;95973.84;;;4.63;100.00
10946;BME280;5525;42.648;23.368;2022-12-18T12:25:14;95990.53;;;4.75;100.00
10946;BME280;5525;42.648;23.368;2022-12-18T12:27:50;96002.63;;;4.78;100.00
10946;BME280;5525;42.648;23.368;2022-12-18T12:30:29;95972.00;;;4.64;100.00
10946;BME280;5525;42.648;23.368;2022-12-18T12:33:08;95963.09;;;4.53;100.00
10946;BME280;5525;42.648;23.368;2022-12-18T12:35:47;95960.63;;;4.47;100.00
10946;BME280;5525;42.648;23.368;2022-12-18T12:38:24;95985.50;;;4.79;100.00
10946;BME280;5525;42.648;23.368;2022-12-18T12:40:56;95967.19;;;4.66;100.00
10946;BME280;5525;42.648;23.368;2022-12-18T12:43:31;95937.13;;;4.54;100.00
10946;BME280;5525;42.648;23.368;2022-12-18T12:46:04;95967.78;;;4.73;100.00
10946;BME280;5525;42.648;23.368;2022-12-18T12:48:37;95981.59;;;4.91;100.00
10946;BME280;5525;42.648;23.368;2022-12-18T12:51:11;95988.00;;;4.90;100.00
10946;BME280;5525;42.648;23.368;2022-12-18T12:53:41;95971.84;;;4.80;100.00
10946;BME280;5525;42.648;23.368;2022-12-18T12:56:12;95998.72;;;4.95;100.00
10946;BME280;5525;42.648;23.368;2022-12-18T12:58:49;95974.97;;;4.67;100.00
10946;BME280;5525;42.648;23.368;2022-12-18T13:01:24;95980.34;;;4.67;100.00
10946;BME280;5525;42.648;23.368;2022-12-18T13:04:00;95972.50;;;4.61;100.00
10946;BME280;5525;42.648;23.368;2022-12-18T13:06:37;95969.91;;;4.71;100.00
10946;BME280;5525;42.648;23.368;2022-12-18T13:09:11;96018.28;;;4.96;100.00
10946;BME280;5525;42.648;23.368;2022-12-18T13:11:41;96011.75;;;4.82;100.00
10946;BME280;5525;42.648;23.368;2022-12-18T13:14:30;96004.81;;;4.86;100.00
10946;BME280;5525;42.648;23.368;2022-12-18T13:17:24;96024.97;;;4.98;100.00
10946;BME280;5525;42.648;23.368;2022-12-18T13:20:07;96028.28;;;5.10;100.00
10946;BME280;5525;42.648;23.368;2022-12-18T13:22:43;96014.03;;;5.00;100.00
10946;BME280;5525;42.648;23.368;2022-12-18T13:25:34;96024.47;;;5.01;100.00
10946;BME280;5525;42.648;23.368;2022-12-18T13:28:10;96035.22;;;5.06;100.00
10946;BME280;5525;42.648;23.368;2022-12-18T13:30:45;96044.34;;;5.05;100.00
10946;BME280;5525;42.648;23.368;2022-12-18T13:36:23;96030.06;;;4.95;100.00
10946;BME280;5525;42.648;23.368;2022-12-18T13:39:11;96041.69;;;4.79;100.00
10946;BME280;5525;42.648;23.368;2022-12-18T13:41:50;95978.69;;;4.66;100.00
10946;BME280;5525;42.648;23.368;2022-12-18T13:44:31;96049.59;;;4.95;100.00
10946;BME280;5525;42.648;23.368;2022-12-18T13:46:59;96041.22;;;4.87;100.00
10946;BME280;5525;42.648;23.368;2022-12-18T13:49:32;96046.47;;;4.77;100.00
10946;BME280;5525;42.648;23.368;2022-12-18T13:52:15;96015.44;;;4.49;100.00
10946;BME280;5525;42.648;23.368;2022-12-18T13:54:47;96053.28;;;4.63;100.00
10946;BME280;5525;42.648;23.368;2022-12-18T13:57:27;96006.72;;;4.32;100.00
10946;BME280;5525;42.648;23.368;2022-12-18T13:59:55;96063.28;;;4.72;100.00
10946;BME280;5525;42.648;23.368;2022-12-18T14:02:24;96065.81;;;4.84;100.00
10946;BME280;5525;42.648;23.368;2022-12-18T14:04:52;96067.59;;;4.73;100.00
10946;BME280;5525;42.648;23.368;2022-12-18T14:07:21;96043.66;;;4.62;100.00
10946;BME280;5525;42.648;23.368;2022-12-18T14:09:51;96065.81;;;4.84;100.00
10946;BME280;5525;42.648;23.368;2022-12-18T14:12:21;96072.97;;;4.78;100.00
10946;BME280;5525;42.648;23.368;2022-12-18T14:15:18;96027.28;;;4.53;100.00
10946;BME280;5525;42.648;23.368;2022-12-18T14:17:49;96075.91;;;4.77;100.00
10946;BME280;5525;42.648;23.368;2022-12-18T14:20:17;96078.56;;;4.72;100.00
10946;BME280;5525;42.648;23.368;2022-12-18T14:22:46;96051.41;;;4.37;100.00
10946;BME280;5525;42.648;23.368;2022-12-18T14:25:17;96047.50;;;4.44;100.00
10946;BME280;5525;42.648;23.368;2022-12-18T14:27:46;96069.94;;;4.43;100.00
10946;BME280;5525;42.648;23.368;2022-12-18T14:30:29;96082.63;;;4.53;100.00
10946;BME280;5525;42.648;23.368;2022-12-18T14:33:01;96078.41;;;4.35;100.00
10946;BME280;5525;42.648;23.368;2022-12-18T14:35:29;96056.59;;;4.22;100.00
10946;BME280;5525;42.648;23.368;2022-12-18T14:38:10;96086.69;;;4.34;100.00
10946;BME280;5525;42.648;23.368;2022-12-18T14:40:37;96024.97;;;3.92;100.00
10946;BME280;5525;42.648;23.368;2022-12-18T14:43:04;96048.78;;;4.15;100.00
10946;BME280;5525;42.648;23.368;2022-12-18T14:45:40;96049.66;;;4.21;100.00
10946;BME280;5525;42.648;23.368;2022-12-18T14:48:15;96088.09;;;4.41;100.00
10946;BME280;5525;42.648;23.368;2022-12-18T14:50:42;96081.59;;;4.32;100.00
10946;BME280;5525;42.648;23.368;2022-12-18T14:53:18;96082.97;;;4.35;100.00
10946;BME280;5525;42.648;23.368;2022-12-18T14:55:47;96026.97;;;4.02;100.00
10946;BME280;5525;42.648;23.368;2022-12-18T14:58:15;96086.41;;;4.30;100.00
10946;BME280;5525;42.648;23.368;2022-12-18T15:00:45;96090.53;;;4.43;100.00
10946;BME280;5525;42.648;23.368;2022-12-18T15:03:18;96086.94;;;4.32;100.00
10946;BME280;5525;42.648;23.368;2022-12-18T15:05:49;96092.66;;;4.41;100.00
10946;BME280;5525;42.648;23.368;2022-12-18T15:08:34;96064.03;;;4.15;100.00
10946;BME280;5525;42.648;23.368;2022-12-18T15:11:01;96031.81;;;3.83;100.00
10946;BME280;5525;42.648;23.368;2022-12-18T15:13:29;96034.56;;;3.88;100.00
10946;BME280;5525;42.648;23.368;2022-12-18T15:15:58;96054.81;;;3.84;100.00
10946;BME280;5525;42.648;23.368;2022-12-18T15:18:32;96089.00;;;4.04;100.00
10946;BME280;5525;42.648;23.368;2022-12-18T15:21:08;96099.38;;;4.22;100.00
10946;BME280;5525;42.648;23.368;2022-12-18T15:23:43;96066.81;;;4.03;100.00
10946;BME280;5525;42.648;23.368;2022-12-18T15:26:13;96103.72;;;4.28;100.00
10946;BME280;5525;42.648;23.368;2022-12-18T15:28:44;96074.88;;;4.08;100.00
10946;BME280;5525;42.648;23.368;2022-12-18T15:31:28;96069.78;;;4.07;100.00
10946;BME280;5525;42.648;23.368;2022-12-18T15:34:11;96111.25;;;4.31;100.00
10946;BME280;5525;42.648;23.368;2022-12-18T15:36:39;96104.41;;;4.18;100.00
10946;BME280;5525;42.648;23.368;2022-12-18T15:39:10;96105.41;;;4.12;100.00
10946;BME280;5525;42.648;23.368;2022-12-18T15:41:38;96127.53;;;4.08;100.00
10946;BME280;5525;42.648;23.368;2022-12-18T15:44:22;96124.84;;;4.08;100.00
10946;BME280;5525;42.648;23.368;2022-12-18T15:46:50;96093.09;;;3.90;100.00
10946;BME280;5525;42.648;23.368;2022-12-18T15:49:18;96129.69;;;4.11;100.00
10946;BME280;5525;42.648;23.368;2022-12-18T15:51:46;96070.63;;;3.69;100.00
10946;BME280;5525;42.648;23.368;2022-12-18T15:54:17;96123.09;;;3.97;100.00
10946;BME280;5525;42.648;23.368;2022-12-18T15:57:04;96135.28;;;4.09;100.00
10946;BME280;5525;42.648;23.368;2022-12-18T15:59:48;96144.81;;;4.00;100.00
10946;BME280;5525;42.648;23.368;2022-12-18T16:02:19;96114.34;;;3.80;100.00
10946;BME280;5525;42.648;23.368;2022-12-18T16:04:49;96159.47;;;3.98;100.00
10946;BME280;5525;42.648;23.368;2022-12-18T16:07:17;96162.88;;;3.93;100.00
10946;BME280;5525;42.648;23.368;2022-12-18T16:09:47;96149.59;;;3.98;100.00
10946;BME280;5525;42.648;23.368;2022-12-18T16:12:18;96120.66;;;3.57;100.00
10946;BME280;5525;42.648;23.368;2022-12-18T16:14:47;96137.88;;;3.66;100.00
10946;BME280;5525;42.648;23.368;2022-12-18T16:17:14;96168.88;;;3.84;100.00
10946;BME280;5525;42.648;23.368;2022-12-18T16:19:46;96168.19;;;3.72;100.00
10946;BME280;5525;42.648;23.368;2022-12-18T16:22:21;96142.75;;;3.53;100.00
10946;BME280;5525;42.648;23.368;2022-12-18T16:24:48;96176.75;;;3.74;100.00
10946;BME280;5525;42.648;23.368;2022-12-18T16:27:16;96173.50;;;3.72;100.00
10946;BME280;5525;42.648;23.368;2022-12-18T16:29:43;96169.69;;;3.68;100.00
10946;BME280;5525;42.648;23.368;2022-12-18T16:32:13;96106.63;;;3.28;100.00
10946;BME280;5525;42.648;23.368;2022-12-18T16:34:42;96162.75;;;3.67;100.00
10946;BME280;5525;42.648;23.368;2022-12-18T16:37:13;96171.47;;;3.79;100.00
10946;BME280;5525;42.648;23.368;2022-12-18T16:39:40;96156.28;;;3.63;100.00
10946;BME280;5525;42.648;23.368;2022-12-18T16:42:12;96168.25;;;3.60;100.00
10946;BME280;5525;42.648;23.368;2022-12-18T16:44:42;96198.53;;;3.82;100.00
10946;BME280;5525;42.648;23.368;2022-12-18T16:47:09;96197.94;;;3.80;100.00
10946;BME280;5525;42.648;23.368;2022-12-18T16:49:36;96177.00;;;3.56;100.00
10946;BME280;5525;42.648;23.368;2022-12-18T16:52:03;96198.78;;;3.64;100.00
10946;BME280;5525;42.648;23.368;2022-12-18T16:54:31;96178.53;;;3.35;100.00
10946;BME280;5525;42.648;23.368;2022-12-18T16:57:00;96176.66;;;3.35;100.00
10946;BME280;5525;42.648;23.368;2022-12-18T16:59:27;96149.97;;;3.19;100.00
10946;BME280;5525;42.648;23.368;2022-12-18T17:01:54;96162.59;;;3.23;100.00
10946;BME280;5525;42.648;23.368;2022-12-18T17:04:21;96203.06;;;3.48;100.00
10946;BME280;5525;42.648;23.368;2022-12-18T17:06:48;96212.91;;;3.48;100.00
10946;BME280;5525;42.648;23.368;2022-12-18T17:09:17;96238.50;;;3.61;100.00
10946;BME280;5525;42.648;23.368;2022-12-18T17:11:50;96235.00;;;3.60;100.00
10946;BME280;5525;42.648;23.368;2022-12-18T17:14:19;96187.81;;;3.32;100.00
10946;BME280;5525;42.648;23.368;2022-12-18T17:16:46;96249.44;;;3.59;100.00
10946;BME280;5525;42.648;23.368;2022-12-18T17:19:14;96234.63;;;3.52;100.00
10946;BME280;5525;42.648;23.368;2022-12-18T17:21:43;96201.72;;;3.18;100.00
10946;BME280;5525;42.648;23.368;2022-12-18T17:24:11;96253.88;;;3.54;100.00
10946;BME280;5525;42.648;23.368;2022-12-18T17:26:37;96228.50;;;3.23;100.00
10946;BME280;5525;42.648;23.368;2022-12-18T17:29:07;96257.44;;;3.42;100.00
10946;BME280;5525;42.648;23.368;2022-12-18T17:31:34;96255.72;;;3.36;100.00
10946;BME280;5525;42.648;23.368;2022-12-18T17:34:02;96253.84;;;3.37;100.00
10946;BME280;5525;42.648;23.368;2022-12-18T17:36:30;96192.66;;;3.02;100.00
10946;BME280;5525;42.648;23.368;2022-12-18T17:39:00;96220.94;;;3.03;100.00
10946;BME280;5525;42.648;23.368;2022-12-18T17:41:30;96259.75;;;3.39;100.00
10946;BME280;5525;42.648;23.368;2022-12-18T17:44:00;96262.09;;;3.35;100.00
10946;BME280;5525;42.648;23.368;2022-12-18T17:46:31;96258.78;;;3.28;100.00
10946;BME280;5525;42.648;23.368;2022-12-18T17:48:59;96243.81;;;3.27;100.00
10946;BME280;5525;42.648;23.368;2022-12-18T17:51:27;96260.97;;;3.31;100.00
10946;BME280;5525;42.648;23.368;2022-12-18T17:53:54;96252.03;;;3.26;100.00
10946;BME280;5525;42.648;23.368;2022-12-18T17:56:23;96245.22;;;3.18;100.00
10946;BME280;5525;42.648;23.368;2022-12-18T17:58:51;96258.34;;;3.20;100.00
10946;BME280;5525;42.648;23.368;2022-12-18T18:01:21;96254.28;;;3.17;100.00
10946;BME280;5525;42.648;23.368;2022-12-18T18:03:50;96213.00;;;2.92;100.00
10946;BME280;5525;42.648;23.368;2022-12-18T18:06:18;96201.78;;;2.78;100.00
10946;BME280;5525;42.648;23.368;2022-12-18T18:08:45;96219.03;;;2.87;100.00
10946;BME280;5525;42.648;23.368;2022-12-18T18:11:15;96226.66;;;2.95;100.00
10946;BME280;5525;42.648;23.368;2022-12-18T18:14:00;96260.22;;;3.19;100.00
10946;BME280;5525;42.648;23.368;2022-12-18T18:16:29;96246.28;;;3.17;100.00
10946;BME280;5525;42.648;23.368;2022-12-18T18:18:59;96253.81;;;3.20;100.00
10946;BME280;5525;42.648;23.368;2022-12-18T18:21:27;96247.72;;;3.08;100.00
10946;BME280;5525;42.648;23.368;2022-12-18T18:23:58;96230.47;;;2.99;100.00
10946;BME280;5525;42.648;23.368;2022-12-18T18:26:26;96250.56;;;3.18;100.00
10946;BME280;5525;42.648;23.368;2022-12-18T18:28:56;96242.25;;;3.15;100.00
10946;BME280;5525;42.648;23.368;2022-12-18T18:31:27;96258.63;;;3.35;100.00
10946;BME280;5525;42.648;23.368;2022-12-18T18:33:55;96270.03;;;3.30;100.00
10946;BME280;5525;42.648;23.368;2022-12-18T18:36:24;96211.22;;;2.97;100.00
10946;BME280;5525;42.648;23.368;2022-12-18T18:38:52;96231.03;;;3.01;100.00
10946;BME280;5525;42.648;23.368;2022-12-18T18:41:19;96276.31;;;3.24;100.00
10946;BME280;5525;42.648;23.368;2022-12-18T18:43:53;96275.66;;;3.17;100.00
10946;BME280;5525;42.648;23.368;2022-12-18T18:46:22;96255.28;;;3.00;100.00
10946;BME280;5525;42.648;23.368;2022-12-18T18:48:49;96275.31;;;3.14;100.00
10946;BME280;5525;42.648;23.368;2022-12-18T18:51:17;96266.63;;;3.07;100.00
10946;BME280;5525;42.648;23.368;2022-12-18T18:53:49;96260.91;;;2.87;100.00
10946;BME280;5525;42.648;23.368;2022-12-18T18:56:23;96295.41;;;3.05;100.00
10946;BME280;5525;42.648;23.368;2022-12-18T18:58:53;96305.97;;;3.11;100.00
10946;BME280;5525;42.648;23.368;2022-12-18T19:01:21;96304.00;;;3.07;100.00
10946;BME280;5525;42.648;23.368;2022-12-18T19:03:48;96301.94;;;2.97;100.00
10946;BME280;5525;42.648;23.368;2022-12-18T19:06:24;96259.59;;;2.61;100.00
10946;BME280;5525;42.648;23.368;2022-12-18T19:08:55;96310.66;;;2.93;100.00
10946;BME280;5525;42.648;23.368;2022-12-18T19:11:24;96294.88;;;2.91;100.00
10946;BME280;5525;42.648;23.368;2022-12-18T19:14:11;96315.97;;;2.93;100.00
10946;BME280;5525;42.648;23.368;2022-12-18T19:16:39;96313.19;;;2.88;100.00
10946;BME280;5525;42.648;23.368;2022-12-18T19:19:07;96301.63;;;2.71;100.00
10946;BME280;5525;42.648;23.368;2022-12-18T19:21:34;96262.50;;;2.48;100.00
10946;BME280;5525;42.648;23.368;2022-12-18T19:24:06;96305.94;;;2.60;100.00
10946;BME280;5525;42.648;23.368;2022-12-18T19:26:33;96282.44;;;2.34;100.00
10946;BME280;5525;42.648;23.368;2022-12-18T19:29:01;96331.81;;;2.60;100.00
10946;BME280;5525;42.648;23.368;2022-12-18T19:31:28;96325.78;;;2.64;100.00
10946;BME280;5525;42.648;23.368;2022-12-18T19:33:55;96322.53;;;2.62;100.00
10946;BME280;5525;42.648;23.368;2022-12-18T19:36:24;96316.75;;;2.42;100.00
10946;BME280;5525;42.648;23.368;2022-12-18T19:38:53;96327.97;;;2.56;100.00
10946;BME280;5525;42.648;23.368;2022-12-18T19:41:24;96306.53;;;2.28;100.00
10946;BME280;5525;42.648;23.368;2022-12-18T19:43:52;96331.69;;;2.43;100.00
10946;BME280;5525;42.648;23.368;2022-12-18T19:46:21;96344.00;;;2.44;100.00
10946;BME280;5525;42.648;23.368;2022-12-18T19:48:48;96312.34;;;2.36;100.00
10946;BME280;5525;42.648;23.368;2022-12-18T19:51:18;96353.63;;;2.57;100.00
10946;BME280;5525;42.648;23.368;2022-12-18T19:53:45;96326.38;;;2.32;100.00
10946;BME280;5525;42.648;23.368;2022-12-18T19:56:15;96366.59;;;2.53;100.00
10946;BME280;5525;42.648;23.368;2022-12-18T19:58:45;96360.00;;;2.44;100.00
10946;BME280;5525;42.648;23.368;2022-12-18T20:01:13;96313.63;;;1.99;100.00
10946;BME280;5525;42.648;23.368;2022-12-18T20:03:40;96306.53;;;1.93;100.00
10946;BME280;5525;42.648;23.368;2022-12-18T20:06:08;96347.56;;;2.27;100.00
10946;BME280;5525;42.648;23.368;2022-12-18T20:08:35;96362.28;;;2.29;100.00
10946;BME280;5525;42.648;23.368;2022-12-18T20:11:02;96323.72;;;2.09;100.00